FNG200 ZZZZ-EFHK
Flight info
| Callsign | FNG200 |
|---|---|
| Flight time | N/A |
| Altitude | 1500 |
| Route | PERNIO RAASEPORI LOHJA LINTU |
| Aircraft | B412/L-SDFZ/C |
Departure
| Time | N/A |
|---|---|
| Airport | ZZZZ |
Arrival
| Time | 2026-04-24 15:47 |
|---|---|
| Airport | Helsinki Vantaa Airport (EFHK) |
| Time | Latitude | Longitude | Altitude | Speed | Heading |
|---|---|---|---|---|---|
| 2026-04-24 14:46 | 59.81145 | 22.91534 | 7 ft | 0 kts | 360° |
| 2026-04-24 14:53 | 59.81153 | 22.91547 | 25 ft | 0 kts | 279° |
| 2026-04-24 14:53 | 59.81142 | 22.91649 | 186 ft | 13 kts | 287° |
| 2026-04-24 14:54 | 59.81144 | 22.91705 | 378 ft | 21 kts | 290° |
| 2026-04-24 14:54 | 59.81205 | 22.91025 | 413 ft | 73 kts | 277° |
| 2026-04-24 14:54 | 59.81230 | 22.89811 | 364 ft | 98 kts | 279° |
| 2026-04-24 14:54 | 59.81467 | 22.88511 | 371 ft | 105 kts | 302° |
| 2026-04-24 14:55 | 59.81790 | 22.87745 | 373 ft | 110 kts | 316° |
| 2026-04-24 14:55 | 59.82749 | 22.86943 | 368 ft | 120 kts | 348° |
| 2026-04-24 14:55 | 59.83591 | 22.87193 | 364 ft | 124 kts | 8° |
| 2026-04-24 14:55 | 59.84407 | 22.87750 | 366 ft | 124 kts | 13° |
| 2026-04-24 14:56 | 59.85217 | 22.88356 | 367 ft | 125 kts | 14° |
| 2026-04-24 14:56 | 59.86031 | 22.88918 | 365 ft | 122 kts | 13° |
| 2026-04-24 14:56 | 59.86830 | 22.89426 | 364 ft | 119 kts | 7° |
| 2026-04-24 14:56 | 59.87624 | 22.89704 | 365 ft | 114 kts | 356° |
| 2026-04-24 14:57 | 59.88415 | 22.89657 | 366 ft | 114 kts | 347° |
| 2026-04-24 14:57 | 59.89174 | 22.89267 | 364 ft | 112 kts | 334° |
| 2026-04-24 14:57 | 59.89852 | 22.88565 | 364 ft | 109 kts | 323° |
| 2026-04-24 14:57 | 59.90497 | 22.87740 | 365 ft | 110 kts | 324° |
| 2026-04-24 14:58 | 59.91143 | 22.86946 | 365 ft | 110 kts | 324° |
| 2026-04-24 14:58 | 59.91796 | 22.86151 | 364 ft | 109 kts | 324° |
| 2026-04-24 14:58 | 59.92440 | 22.85367 | 364 ft | 108 kts | 325° |
| 2026-04-24 14:58 | 59.93077 | 22.84565 | 367 ft | 108 kts | 324° |
| 2026-04-24 14:59 | 59.93708 | 22.83763 | 367 ft | 107 kts | 324° |
| 2026-04-24 14:59 | 59.94339 | 22.82941 | 366 ft | 109 kts | 324° |
| 2026-04-24 14:59 | 59.94978 | 22.82100 | 362 ft | 111 kts | 323° |
| 2026-04-24 14:59 | 59.95628 | 22.81253 | 359 ft | 113 kts | 323° |
| 2026-04-24 15:00 | 59.96293 | 22.80411 | 359 ft | 112 kts | 326° |
| 2026-04-24 15:00 | 59.97002 | 22.79822 | 358 ft | 109 kts | 337° |
| 2026-04-24 15:00 | 59.97749 | 22.79576 | 369 ft | 109 kts | 351° |
| 2026-04-24 15:00 | 59.98514 | 22.79665 | 368 ft | 112 kts | 360° |
| 2026-04-24 15:01 | 59.99269 | 22.80023 | 369 ft | 114 kts | 9° |
| 2026-04-24 15:01 | 60.00046 | 22.80437 | 367 ft | 116 kts | 5° |
| 2026-04-24 15:01 | 60.00836 | 22.80750 | 365 ft | 116 kts | 0° |
| 2026-04-24 15:01 | 60.01623 | 22.80854 | 363 ft | 111 kts | 352° |
| 2026-04-24 15:02 | 60.02370 | 22.80621 | 364 ft | 107 kts | 341° |
| 2026-04-24 15:02 | 60.03078 | 22.80153 | 363 ft | 107 kts | 338° |
| 2026-04-24 15:02 | 60.03780 | 22.79717 | 364 ft | 105 kts | 340° |
| 2026-04-24 15:02 | 60.04483 | 22.79348 | 369 ft | 103 kts | 341° |
| 2026-04-24 15:03 | 60.05185 | 22.79046 | 364 ft | 103 kts | 344° |
| 2026-04-24 15:03 | 60.05910 | 22.78818 | 367 ft | 109 kts | 349° |
| 2026-04-24 15:03 | 60.06689 | 22.78982 | 365 ft | 116 kts | 6° |
| 2026-04-24 15:03 | 60.07442 | 22.79666 | 364 ft | 122 kts | 25° |
| 2026-04-24 15:04 | 60.08070 | 22.80792 | 359 ft | 124 kts | 42° |
| 2026-04-24 15:04 | 60.08568 | 22.82218 | 362 ft | 125 kts | 48° |
| 2026-04-24 15:04 | 60.09039 | 22.83684 | 365 ft | 126 kts | 50° |
| 2026-04-24 15:04 | 60.09558 | 22.85121 | 363 ft | 128 kts | 43° |
| 2026-04-24 15:05 | 60.10195 | 22.86332 | 362 ft | 125 kts | 34° |
| 2026-04-24 15:05 | 60.10895 | 22.87344 | 362 ft | 123 kts | 26° |
| 2026-04-24 15:05 | 60.11629 | 22.88254 | 361 ft | 124 kts | 26° |
| 2026-04-24 15:05 | 60.12375 | 22.89080 | 353 ft | 122 kts | 19° |
| 2026-04-24 15:06 | 60.13156 | 22.89675 | 358 ft | 118 kts | 8° |
| 2026-04-24 15:06 | 60.13925 | 22.89781 | 494 ft | 106 kts | 350° |
| 2026-04-24 15:06 | 60.14621 | 22.89392 | 608 ft | 104 kts | 332° |
| 2026-04-24 15:06 | 60.15199 | 22.88569 | 679 ft | 102 kts | 316° |
| 2026-04-24 15:07 | 60.15719 | 22.87610 | 754 ft | 101 kts | 319° |
| 2026-04-24 15:07 | 60.16321 | 22.86907 | 824 ft | 102 kts | 338° |
| 2026-04-24 15:07 | 60.17057 | 22.86887 | 816 ft | 111 kts | 8° |
| 2026-04-24 15:07 | 60.17741 | 22.87721 | 815 ft | 122 kts | 37° |
| 2026-04-24 15:08 | 60.18171 | 22.89243 | 811 ft | 131 kts | 65° |
| 2026-04-24 15:08 | 60.18211 | 22.91106 | 809 ft | 138 kts | 94° |
| 2026-04-24 15:08 | 60.17973 | 22.92977 | 808 ft | 138 kts | 102° |
| 2026-04-24 15:08 | 60.17666 | 22.94792 | 807 ft | 137 kts | 105° |
| 2026-04-24 15:09 | 60.17301 | 22.96558 | 808 ft | 136 kts | 109° |
| 2026-04-24 15:09 | 60.16953 | 22.98305 | 809 ft | 133 kts | 101° |
| 2026-04-24 15:09 | 60.16811 | 23.00116 | 804 ft | 131 kts | 84° |
| 2026-04-24 15:09 | 60.16916 | 23.01882 | 802 ft | 128 kts | 68° |
| 2026-04-24 15:10 | 60.17263 | 23.03501 | 799 ft | 124 kts | 51° |
| 2026-04-24 15:10 | 60.17777 | 23.04870 | 803 ft | 123 kts | 44° |
| 2026-04-24 15:10 | 60.18311 | 23.06191 | 806 ft | 122 kts | 43° |
| 2026-04-24 15:10 | 60.18868 | 23.07521 | 802 ft | 126 kts | 41° |
| 2026-04-24 15:11 | 60.19420 | 23.08923 | 801 ft | 131 kts | 52° |
| 2026-04-24 15:11 | 60.19681 | 23.10685 | 805 ft | 134 kts | 79° |
| 2026-04-24 15:11 | 60.19485 | 23.12532 | 802 ft | 139 kts | 116° |
| 2026-04-24 15:11 | 60.18781 | 23.13886 | 800 ft | 142 kts | 141° |
| 2026-04-24 15:12 | 60.17953 | 23.14964 | 802 ft | 143 kts | 147° |
| 2026-04-24 15:12 | 60.16187 | 23.16849 | 801 ft | 144 kts | 154° |
| 2026-04-24 15:12 | 60.15234 | 23.17454 | 799 ft | 143 kts | 170° |
| 2026-04-24 15:13 | 60.14256 | 23.17754 | 807 ft | 143 kts | 173° |
| 2026-04-24 15:13 | 60.13283 | 23.18252 | 804 ft | 146 kts | 157° |
| 2026-04-24 15:13 | 60.12388 | 23.19199 | 805 ft | 146 kts | 145° |
| 2026-04-24 15:13 | 60.11543 | 23.20330 | 805 ft | 147 kts | 147° |
| 2026-04-24 15:14 | 60.10638 | 23.21263 | 803 ft | 146 kts | 156° |
| 2026-04-24 15:14 | 60.09691 | 23.21910 | 811 ft | 145 kts | 165° |
| 2026-04-24 15:14 | 60.08720 | 23.22486 | 806 ft | 146 kts | 155° |
| 2026-04-24 15:14 | 60.07916 | 23.23714 | 802 ft | 146 kts | 127° |
| 2026-04-24 15:15 | 60.07301 | 23.25324 | 800 ft | 146 kts | 122° |
| 2026-04-24 15:15 | 60.06720 | 23.27000 | 799 ft | 147 kts | 120° |
| 2026-04-24 15:15 | 60.06256 | 23.28781 | 799 ft | 142 kts | 107° |
| 2026-04-24 15:15 | 60.05964 | 23.30648 | 798 ft | 140 kts | 106° |
| 2026-04-24 15:16 | 60.05434 | 23.32272 | 803 ft | 140 kts | 128° |
| 2026-04-24 15:16 | 60.04743 | 23.33670 | 807 ft | 143 kts | 136° |
| 2026-04-24 15:16 | 60.04001 | 23.35014 | 804 ft | 145 kts | 137° |
| 2026-04-24 15:16 | 60.03239 | 23.36354 | 803 ft | 146 kts | 138° |
| 2026-04-24 15:17 | 60.02424 | 23.37551 | 800 ft | 146 kts | 147° |
| 2026-04-24 15:17 | 60.01564 | 23.38617 | 801 ft | 145 kts | 148° |
| 2026-04-24 15:17 | 60.00699 | 23.39656 | 799 ft | 144 kts | 149° |
| 2026-04-24 15:17 | 59.99834 | 23.40663 | 799 ft | 143 kts | 150° |
| 2026-04-24 15:18 | 59.98981 | 23.41686 | 799 ft | 143 kts | 142° |
| 2026-04-24 15:18 | 59.98426 | 23.43286 | 797 ft | 141 kts | 102° |
| 2026-04-24 15:18 | 59.98469 | 23.45169 | 798 ft | 136 kts | 63° |
| 2026-04-24 15:18 | 59.99071 | 23.46544 | 797 ft | 132 kts | 30° |
| 2026-04-24 15:19 | 59.99787 | 23.47670 | 795 ft | 131 kts | 37° |
| 2026-04-24 15:19 | 60.00346 | 23.49122 | 797 ft | 134 kts | 55° |
| 2026-04-24 15:19 | 60.00755 | 23.50800 | 799 ft | 135 kts | 59° |
| 2026-04-24 15:19 | 60.01115 | 23.52545 | 796 ft | 136 kts | 64° |
| 2026-04-24 15:20 | 60.01429 | 23.54302 | 798 ft | 137 kts | 66° |
| 2026-04-24 15:20 | 60.01747 | 23.56102 | 798 ft | 137 kts | 60° |
| 2026-04-24 15:20 | 60.02206 | 23.57755 | 799 ft | 135 kts | 51° |
| 2026-04-24 15:20 | 60.02803 | 23.59190 | 796 ft | 133 kts | 43° |
| 2026-04-24 15:21 | 60.03417 | 23.60568 | 800 ft | 133 kts | 44° |
| 2026-04-24 15:21 | 60.04013 | 23.62013 | 799 ft | 136 kts | 45° |
| 2026-04-24 15:21 | 60.04591 | 23.63516 | 793 ft | 136 kts | 48° |
| 2026-04-24 15:21 | 60.05153 | 23.65031 | 795 ft | 135 kts | 47° |
| 2026-04-24 15:22 | 60.05701 | 23.66541 | 793 ft | 133 kts | 47° |
| 2026-04-24 15:22 | 60.06231 | 23.68040 | 791 ft | 132 kts | 49° |
| 2026-04-24 15:22 | 60.06580 | 23.69036 | 791 ft | 131 kts | 48° |
| 2026-04-24 15:23 | 60.07655 | 23.72019 | 793 ft | 132 kts | 46° |
| 2026-04-24 15:23 | 60.08980 | 23.75294 | 795 ft | 128 kts | 41° |
| 2026-04-24 15:23 | 60.09611 | 23.76545 | 794 ft | 126 kts | 34° |
| 2026-04-24 15:24 | 60.11403 | 23.79489 | 796 ft | 127 kts | 32° |
| 2026-04-24 15:25 | 60.12661 | 23.81953 | 794 ft | 128 kts | 46° |
| 2026-04-24 15:25 | 60.13284 | 23.85494 | 788 ft | 139 kts | 70° |
| 2026-04-24 15:26 | 60.14640 | 23.90302 | 787 ft | 133 kts | 39° |
| 2026-04-24 15:27 | 60.16498 | 23.94415 | 782 ft | 135 kts | 54° |
| 2026-04-24 15:27 | 60.17748 | 23.99553 | 784 ft | 136 kts | 52° |
| 2026-04-24 15:28 | 60.20857 | 24.02444 | 782 ft | 126 kts | 15° |
| 2026-04-24 15:29 | 60.22514 | 24.03761 | 782 ft | 131 kts | 21° |
| 2026-04-24 15:30 | 60.24498 | 24.07326 | 777 ft | 126 kts | 45° |
| 2026-04-24 15:31 | 60.26967 | 24.12104 | 788 ft | 125 kts | 40° |
| 2026-04-24 15:32 | 60.28788 | 24.18197 | 787 ft | 129 kts | 52° |
| 2026-04-24 15:33 | 60.30759 | 24.24322 | 658 ft | 130 kts | 54° |
| 2026-04-24 15:33 | 60.32299 | 24.27646 | 582 ft | 84 kts | 27° |
| 2026-04-24 15:34 | 60.33021 | 24.28818 | 403 ft | 56 kts | 30° |
| 2026-04-24 15:35 | 60.33858 | 24.30314 | 690 ft | 79 kts | 38° |
| 2026-04-24 15:35 | 60.34748 | 24.32230 | 897 ft | 109 kts | 46° |
| 2026-04-24 15:35 | 60.35236 | 24.33519 | 904 ft | 120 kts | 48° |
| 2026-04-24 15:36 | 60.35786 | 24.34887 | 889 ft | 127 kts | 44° |
| 2026-04-24 15:36 | 60.36930 | 24.37454 | 883 ft | 126 kts | 41° |
| 2026-04-24 15:36 | 60.37427 | 24.38966 | 877 ft | 134 kts | 60° |
| 2026-04-24 15:37 | 60.37775 | 24.40697 | 874 ft | 131 kts | 63° |
| 2026-04-24 15:37 | 60.38158 | 24.42359 | 877 ft | 131 kts | 59° |
| 2026-04-24 15:37 | 60.38501 | 24.44072 | 875 ft | 133 kts | 68° |
| 2026-04-24 15:37 | 60.38670 | 24.45920 | 872 ft | 135 kts | 79° |
| 2026-04-24 15:38 | 60.38667 | 24.47862 | 871 ft | 141 kts | 91° |
| 2026-04-24 15:38 | 60.38553 | 24.49843 | 859 ft | 140 kts | 92° |
| 2026-04-24 15:38 | 60.38425 | 24.51762 | 870 ft | 136 kts | 94° |
| 2026-04-24 15:38 | 60.38331 | 24.53674 | 872 ft | 138 kts | 91° |
| 2026-04-24 15:39 | 60.38272 | 24.55627 | 869 ft | 140 kts | 90° |
| 2026-04-24 15:39 | 60.38234 | 24.57575 | 862 ft | 137 kts | 88° |
| 2026-04-24 15:39 | 60.38198 | 24.59487 | 869 ft | 136 kts | 89° |
| 2026-04-24 15:39 | 60.38154 | 24.61407 | 868 ft | 137 kts | 90° |
| 2026-04-24 15:40 | 60.38115 | 24.63306 | 869 ft | 135 kts | 88° |
| 2026-04-24 15:40 | 60.38086 | 24.65215 | 868 ft | 136 kts | 87° |
| 2026-04-24 15:40 | 60.38064 | 24.67112 | 863 ft | 134 kts | 87° |
| 2026-04-24 15:40 | 60.38045 | 24.68994 | 868 ft | 135 kts | 87° |
| 2026-04-24 15:41 | 60.38033 | 24.70893 | 865 ft | 135 kts | 86° |
| 2026-04-24 15:41 | 60.38025 | 24.72806 | 867 ft | 136 kts | 86° |
| 2026-04-24 15:41 | 60.38020 | 24.74733 | 866 ft | 137 kts | 87° |
| 2026-04-24 15:41 | 60.38020 | 24.76657 | 865 ft | 139 kts | 87° |
| 2026-04-24 15:42 | 60.38036 | 24.78595 | 866 ft | 138 kts | 86° |
| 2026-04-24 15:42 | 60.38037 | 24.80526 | 858 ft | 136 kts | 86° |
| 2026-04-24 15:42 | 60.38029 | 24.82466 | 868 ft | 140 kts | 86° |
| 2026-04-24 15:42 | 60.38023 | 24.84442 | 867 ft | 141 kts | 89° |
| 2026-04-24 15:43 | 60.38000 | 24.86428 | 862 ft | 140 kts | 88° |
| 2026-04-24 15:43 | 60.37890 | 24.88370 | 867 ft | 140 kts | 97° |
| 2026-04-24 15:43 | 60.37676 | 24.90311 | 868 ft | 143 kts | 98° |
| 2026-04-24 15:43 | 60.37277 | 24.92201 | 867 ft | 150 kts | 116° |
| 2026-04-24 15:44 | 60.36641 | 24.93898 | 866 ft | 153 kts | 129° |
| 2026-04-24 15:44 | 60.35908 | 24.95452 | 868 ft | 152 kts | 131° |
| 2026-04-24 15:44 | 60.35188 | 24.96962 | 845 ft | 145 kts | 129° |
| 2026-04-24 15:44 | 60.34534 | 24.98432 | 865 ft | 137 kts | 129° |
| 2026-04-24 15:45 | 60.33846 | 24.99688 | 841 ft | 136 kts | 148° |
| 2026-04-24 15:45 | 60.32950 | 25.00064 | 795 ft | 131 kts | 184° |
| 2026-04-24 15:45 | 60.32058 | 24.99960 | 760 ft | 124 kts | 185° |
| 2026-04-24 15:45 | 60.31226 | 24.99971 | 818 ft | 117 kts | 171° |
| 2026-04-24 15:46 | 60.30438 | 25.00378 | 801 ft | 116 kts | 183° |
| 2026-04-24 15:46 | 60.29893 | 24.99721 | 857 ft | 79 kts | 276° |
| 2026-04-24 15:46 | 60.30202 | 24.99301 | 857 ft | 66 kts | 357° |
| 2026-04-24 15:46 | 60.30681 | 24.99250 | 585 ft | 71 kts | 336° |
| 2026-04-24 15:47 | 60.31067 | 24.98890 | 382 ft | 38 kts | 324° |
| 2026-04-24 15:47 | 60.31166 | 24.98801 | 198 ft | 4 kts | 326° |
| 2026-04-24 15:47 | 60.31207 | 24.98797 | 180 ft | 15 kts | 24° |
| 2026-04-24 15:47 | 60.31272 | 24.98928 | 158 ft | 9 kts | 50° |
| 2026-04-24 15:48 | 60.31311 | 24.98946 | 163 ft | 5 kts | 333° |
| 2026-04-24 15:48 | 60.31319 | 24.98940 | 148 ft | 0 kts | 332° |